Time;durP1;ratioP1;P1;durP2;ratioP2;P2;SDS_P1;SDS_P2;PMS_P1;PMS_P2;Temp;Humidity;BMP_temperature;BMP_pressure;BME280_temperature;BME280_humidity;BME280_pressure;Samples;Min_cycle;Max_cycle;Signal;HPM_P1;HPM_P2
2022/07/28 00:01:51;;;;;;;4.82;0.85;;;;;;;26.65;35.21;101329.81;5101627;28;20401;-46
2022/07/28 00:04:20;;;;;;;5.97;1.10;;;;;;;26.64;35.15;101324.56;5083922;28;20128;-46
2022/07/28 00:06:48;;;;;;;5.10;1.25;;;;;;;26.56;35.65;101308.69;5100582;28;20111;-46
2022/07/28 00:09:16;;;;;;;4.50;1.55;;;;;;;26.54;35.51;101316.56;5102279;28;20039;-49
2022/07/28 00:11:44;;;;;;;1.83;0.88;;;;;;;26.54;35.41;101319.22;5100901;28;20236;-49
2022/07/28 00:14:12;;;;;;;2.80;1.00;;;;;;;26.61;35.74;101320.13;5101259;28;20027;-49
2022/07/28 00:16:41;;;;;;;3.78;0.98;;;;;;;26.63;35.41;101317.53;5100196;28;20046;-44
2022/07/28 00:19:10;;;;;;;3.40;1.02;;;;;;;26.54;35.18;101298.16;5101696;28;20036;-55
2022/07/28 00:21:39;;;;;;;1.85;0.77;;;;;;;26.63;35.36;101305.25;5101300;28;20031;-49
2022/07/28 00:24:07;;;;;;;3.90;1.50;;;;;;;26.64;35.48;101309.63;5101400;28;20036;-50
2022/07/28 00:26:36;;;;;;;3.50;1.17;;;;;;;26.60;35.62;101305.22;5100545;28;20065;-51
2022/07/28 00:29:05;;;;;;;2.38;1.02;;;;;;;26.54;35.74;101300.78;5100638;28;20673;-49
2022/07/28 00:31:34;;;;;;;2.95;1.08;;;;;;;26.57;35.58;101293.78;5101958;28;20509;-45
2022/07/28 00:34:03;;;;;;;2.47;1.05;;;;;;;26.58;35.34;101295.56;5102266;28;20107;-52
2022/07/28 00:36:31;;;;;;;3.05;1.10;;;;;;;26.57;35.49;101302.56;5100205;28;20031;-49
2022/07/28 00:39:00;;;;;;;5.88;1.48;;;;;;;26.57;35.63;101291.16;5082672;28;20031;-45
2022/07/28 00:41:28;;;;;;;7.65;0.73;;;;;;;26.53;35.66;101293.75;5082888;28;20039;-45
2022/07/28 00:43:56;;;;;;;4.60;1.00;;;;;;;26.50;35.67;101295.50;5083778;28;20137;-52
2022/07/28 00:46:25;;;;;;;2.25;0.90;;;;;;;26.53;35.44;101298.16;5100393;28;20052;-50
2022/07/28 00:48:54;;;;;;;4.78;1.10;;;;;;;26.58;35.28;101298.19;5102717;28;20353;-46
2022/07/28 00:51:25;;;;;;;2.90;1.00;;;;;;;26.53;35.48;101296.41;5105277;28;20023;-47
2022/07/28 00:53:54;;;;;;;5.30;1.27;;;;;;;26.51;35.78;101299.91;5105054;28;20036;-55
2022/07/28 00:56:24;;;;;;;4.55;1.05;;;;;;;26.51;35.51;101297.25;5104202;28;20039;-48
2022/07/28 00:58:52;;;;;;;1.92;0.70;;;;;;;26.53;35.66;101298.16;5105449;28;20065;-49
2022/07/28 01:01:22;;;;;;;5.72;1.33;;;;;;;26.48;35.72;101291.97;5104561;28;20066;-53
2022/07/28 01:03:57;;;;;;;3.03;1.02;;;;;;;26.46;35.78;101293.72;5104679;28;20055;-54
2022/07/28 01:06:37;;;;;;;2.58;0.90;;;;;;;26.46;35.54;101296.34;5103992;28;20035;-48
2022/07/28 01:09:30;;;;;;;3.30;0.82;;;;;;;26.41;35.47;101279.63;5105365;28;20505;-45
2022/07/28 01:11:59;;;;;;;2.90;1.08;;;;;;;26.47;35.61;101290.22;5096445;28;20130;-48
2022/07/28 01:14:48;;;;;;;3.22;1.05;;;;;;;26.46;35.64;101281.44;5104433;28;20506;-47
2022/07/28 01:17:35;;;;;;;1.60;0.60;;;;;;;26.48;35.58;101281.44;5095320;28;20035;-48
2022/07/28 01:20:23;;;;;;;1.70;0.80;;;;;;;26.45;35.73;101278.78;5092428;28;20429;-47
2022/07/28 01:23:10;;;;;;;2.03;0.75;;;;;;;26.36;35.58;101276.97;5104901;28;20032;-49
2022/07/28 01:26:01;;;;;;;2.10;0.98;;;;;;;26.34;35.94;101271.72;5104359;28;20020;-45
2022/07/28 01:28:45;;;;;;;2.13;0.90;;;;;;;26.34;35.83;101271.72;5096391;28;20039;-47
2022/07/28 01:31:17;;;;;;;3.90;1.60;;;;;;;26.37;35.59;101277.00;5085994;28;20110;-48
2022/07/28 01:33:48;;;;;;;3.15;1.00;;;;;;;26.36;35.76;101269.06;5085998;28;20456;-51
2022/07/28 01:36:19;;;;;;;1.42;0.60;;;;;;;26.38;35.54;101264.72;5103402;28;20546;-49
2022/07/28 01:38:48;;;;;;;4.43;1.02;;;;;;;26.36;35.51;101256.81;5104221;28;20037;-45
2022/07/28 01:41:20;;;;;;;2.50;0.90;;;;;;;26.33;35.71;101261.16;5104130;28;20028;-48
2022/07/28 01:43:55;;;;;;;4.25;1.25;;;;;;;26.36;35.70;101264.72;5086418;28;20038;-53
2022/07/28 01:46:23;;;;;;;3.35;1.00;;;;;;;26.42;35.60;101265.59;5103803;28;20036;-44
2022/07/28 01:48:53;;;;;;;2.10;0.90;;;;;;;26.32;35.61;101273.44;5104285;28;20545;-54
2022/07/28 01:51:21;;;;;;;4.32;1.17;;;;;;;26.29;35.74;101260.25;5085230;28;20875;-51
2022/07/28 01:53:51;;;;;;;5.05;1.17;;;;;;;26.24;35.97;101265.50;5104037;28;20130;-46
2022/07/28 01:56:21;;;;;;;3.38;0.90;;;;;;;26.23;35.81;101260.19;5101972;28;20397;-47
2022/07/28 01:58:52;;;;;;;1.95;0.88;;;;;;;26.24;35.43;101257.59;5104160;28;20030;-45
2022/07/28 02:01:22;;;;;;;3.97;1.23;;;;;;;26.29;35.79;101256.78;5084346;28;20579;-49
2022/07/28 02:03:51;;;;;;;2.28;0.95;;;;;;;26.23;35.91;101250.59;5103212;28;20111;-45
2022/07/28 02:06:20;;;;;;;2.83;1.20;;;;;;;26.22;35.87;101254.06;5084359;28;20036;-48
2022/07/28 02:08:50;;;;;;;3.17;0.80;;;;;;;26.18;36.03;101244.41;5103290;28;20042;-48
2022/07/28 02:11:39;;;;;;;2.58;0.98;;;;;;;26.23;35.67;101239.16;5103428;28;20053;-46
2022/07/28 02:14:07;;;;;;;2.63;1.27;;;;;;;26.18;35.52;101233.88;5087751;28;20478;-50
2022/07/28 02:16:39;;;;;;;2.13;0.80;;;;;;;26.13;35.73;101235.63;5102047;28;20035;-49
2022/07/28 02:19:08;;;;;;;3.72;0.85;;;;;;;26.15;36.08;101236.47;5085209;28;20694;-47
2022/07/28 02:21:37;;;;;;;2.22;0.75;;;;;;;26.17;36.02;101233.88;5104299;28;20036;-46
2022/07/28 02:24:08;;;;;;;3.67;1.05;;;;;;;26.13;35.82;101232.97;5102847;28;20031;-48
2022/07/28 02:26:42;;;;;;;2.28;0.85;;;;;;;26.17;35.97;101232.13;5101911;28;20088;-52
2022/07/28 02:29:12;;;;;;;2.72;0.80;;;;;;;26.14;36.08;101231.22;5085229;28;20066;-49
2022/07/28 02:31:55;;;;;;;4.95;1.23;;;;;;;26.10;36.23;101227.66;5084558;28;20040;-50
2022/07/28 02:34:24;;;;;;;1.83;0.95;;;;;;;26.16;35.79;101232.97;5084888;28;20028;-45
2022/07/28 02:37:03;;;;;;;3.28;0.82;;;;;;;26.10;35.71;101225.03;5083885;28;20488;-54
2022/07/28 02:39:36;;;;;;;4.15;0.70;;;;;;;26.11;35.99;101226.81;5084755;28;20127;-50
2022/07/28 02:42:10;;;;;;;2.85;0.90;;;;;;;26.07;35.91;101227.63;5084660;28;20168;-45
2022/07/28 02:44:43;;;;;;;3.10;1.00;;;;;;;26.15;35.78;101231.22;5103097;28;20379;-55
2022/07/28 02:47:15;;;;;;;4.18;0.90;;;;;;;26.14;35.77;101228.59;5101535;28;20264;-52
2022/07/28 02:49:43;;;;;;;2.47;0.68;;;;;;;26.13;35.85;101222.47;5084368;28;20201;-54
2022/07/28 02:52:12;;;;;;;1.30;0.70;;;;;;;26.05;35.86;101221.47;5103129;28;20041;-49
2022/07/28 02:54:41;;;;;;;0.77;0.70;;;;;;;26.00;35.76;101226.69;5084626;28;20031;-49
2022/07/28 02:57:10;;;;;;;1.00;0.80;;;;;;;26.00;35.97;101215.28;5083386;28;20036;-50
2022/07/28 02:59:38;;;;;;;1.17;0.80;;;;;;;26.01;35.66;101227.56;5085178;28;20035;-49
2022/07/28 03:02:07;;;;;;;3.78;1.33;;;;;;;26.08;35.89;101226.75;5084613;28;20032;-51
2022/07/28 03:04:55;;;;;;;2.65;1.10;;;;;;;26.12;35.44;101219.81;5084614;28;20044;-50
2022/07/28 03:07:23;;;;;;;3.15;0.80;;;;;;;26.10;35.95;101222.41;5101150;28;20035;-51
2022/07/28 03:09:50;;;;;;;1.60;0.70;;;;;;;25.94;35.97;101193.38;5102037;28;20096;-55
2022/07/28 03:12:19;;;;;;;2.40;0.90;;;;;;;26.05;36.04;101210.97;5102083;28;20040;-51
2022/07/28 03:14:49;;;;;;;3.17;0.98;;;;;;;25.98;35.77;101217.06;5083996;28;20035;-51
2022/07/28 03:17:18;;;;;;;4.22;0.65;;;;;;;26.00;36.02;101215.28;5101364;28;20603;-53
2022/07/28 03:19:47;;;;;;;1.52;0.80;;;;;;;25.99;35.96;101218.78;5102267;28;20038;-45
2022/07/28 03:22:15;;;;;;;1.80;0.65;;;;;;;25.97;35.64;101215.28;5083704;28;20043;-46
2022/07/28 03:24:47;;;;;;;2.17;0.80;;;;;;;26.01;35.87;101215.31;5101784;28;20053;-48
2022/07/28 03:27:22;;;;;;;1.52;0.52;;;;;;;25.98;35.66;101224.94;5101154;28;20043;-46
2022/07/28 03:29:54;;;;;;;2.22;0.80;;;;;;;26.00;36.10;101220.53;5101969;28;20802;-51
2022/07/28 03:32:23;;;;;;;2.05;0.73;;;;;;;25.93;35.87;101217.00;5101862;28;20036;-51
2022/07/28 03:34:53;;;;;;;3.72;1.10;;;;;;;25.90;36.06;101220.47;5083548;28;20038;-48
2022/07/28 03:37:32;;;;;;;1.35;0.68;;;;;;;25.98;35.63;101215.28;5082674;28;20031;-48
2022/07/28 03:40:02;;;;;;;0.65;0.50;;;;;;;25.98;35.56;101222.31;5101582;28;20043;-47
2022/07/28 03:42:31;;;;;;;2.00;0.88;;;;;;;25.97;35.96;101220.53;5101677;28;20485;-52
2022/07/28 03:45:01;;;;;;;2.28;1.00;;;;;;;25.96;35.85;101224.03;5083413;28;20058;-50
2022/07/28 03:47:30;;;;;;;2.15;0.70;;;;;;;25.87;35.81;101215.19;5101128;28;20041;-44
2022/07/28 03:49:58;;;;;;;3.10;0.85;;;;;;;25.87;35.98;101220.44;5101962;28;20039;-52
2022/07/28 03:52:27;;;;;;;3.67;0.90;;;;;;;25.89;35.71;101212.59;5101520;28;20028;-54
2022/07/28 03:54:55;;;;;;;1.25;0.57;;;;;;;25.90;35.60;101209.97;5101169;28;20039;-50
2022/07/28 03:57:23;;;;;;;1.98;0.75;;;;;;;25.88;36.07;101214.31;5100613;28;20039;-51
2022/07/28 03:59:51;;;;;;;0.93;0.68;;;;;;;25.83;36.04;101209.91;5101386;28;20466;-49
2022/07/28 04:02:19;;;;;;;2.88;0.80;;;;;;;25.84;35.82;101219.53;5101190;28;20042;-49
2022/07/28 04:04:48;;;;;;;1.08;0.68;;;;;;;25.85;35.94;101213.44;5082802;28;20053;-47
2022/07/28 04:07:16;;;;;;;4.25;0.90;;;;;;;25.83;35.90;101208.13;5099957;28;20047;-44
2022/07/28 04:09:43;;;;;;;0.95;0.45;;;;;;;25.81;35.90;101212.53;5101254;28;20047;-50
2022/07/28 04:12:11;;;;;;;2.63;0.70;;;;;;;25.81;35.83;101216.88;5100572;28;20039;-45
2022/07/28 04:14:41;;;;;;;1.50;0.73;;;;;;;25.75;35.86;101217.72;5101002;28;20059;-47
2022/07/28 04:17:09;;;;;;;1.45;0.70;;;;;;;25.75;35.60;101217.72;5100583;28;20055;-49
2022/07/28 04:19:37;;;;;;;1.45;0.77;;;;;;;25.73;36.07;101225.56;5082727;28;20054;-47
2022/07/28 04:22:06;;;;;;;2.38;0.70;;;;;;;25.73;35.99;101220.31;5101137;28;20108;-44
2022/07/28 04:24:34;;;;;;;1.95;0.70;;;;;;;25.69;35.73;101215.00;5100503;28;20575;-47
2022/07/28 04:27:03;;;;;;;3.35;0.65;;;;;;;25.68;36.16;101213.25;5081697;28;20028;-50
2022/07/28 04:29:30;;;;;;;1.67;0.68;;;;;;;25.64;36.30;101207.09;5101966;28;20232;-48
2022/07/28 04:31:59;;;;;;;1.42;0.60;;;;;;;25.66;35.81;101209.72;5100629;28;20042;-50
2022/07/28 04:34:28;;;;;;;4.15;1.08;;;;;;;25.66;35.78;101200.09;5100928;28;20053;-54
2022/07/28 04:36:57;;;;;;;1.38;0.40;;;;;;;25.75;35.70;101208.06;5099568;28;20063;-53
2022/07/28 04:39:25;;;;;;;1.90;0.90;;;;;;;25.73;35.73;101208.94;5100749;28;20122;-47
2022/07/28 04:41:54;;;;;;;0.73;0.52;;;;;;;25.61;35.84;101197.44;5100797;28;20032;-47
2022/07/28 04:44:22;;;;;;;1.58;0.50;;;;;;;25.75;35.82;101215.94;5101499;28;20027;-54
2022/07/28 04:46:50;;;;;;;2.95;0.93;;;;;;;25.69;35.72;101220.28;5099326;28;20509;-51
2022/07/28 04:49:19;;;;;;;0.95;0.68;;;;;;;25.73;36.01;101222.06;5101045;28;20051;-49
2022/07/28 04:51:49;;;;;;;1.98;0.80;;;;;;;25.70;35.92;101227.28;5100821;28;20516;-52
2022/07/28 04:54:17;;;;;;;1.75;0.60;;;;;;;25.68;35.99;101223.75;5101515;28;20066;-49
2022/07/28 04:56:45;;;;;;;4.10;0.90;;;;;;;25.73;35.70;101225.56;5099567;28;20053;-44
2022/07/28 04:59:14;;;;;;;3.53;0.75;;;;;;;25.60;36.03;101227.22;5101364;28;20032;-48
2022/07/28 05:01:42;;;;;;;3.10;0.88;;;;;;;25.55;36.05;101228.03;5101799;28;20036;-54
2022/07/28 05:04:11;;;;;;;1.17;0.43;;;;;;;25.50;36.00;101206.94;5100397;28;20522;-50
2022/07/28 05:06:41;;;;;;;3.95;0.70;;;;;;;25.68;35.76;101227.28;5099279;28;20031;-47
2022/07/28 05:09:09;;;;;;;1.85;0.80;;;;;;;25.53;35.78;101222.75;5100468;28;20162;-49
2022/07/28 05:11:38;;;;;;;1.20;0.60;;;;;;;25.50;35.98;101227.97;5100777;28;20084;-48
2022/07/28 05:14:06;;;;;;;1.77;0.88;;;;;;;25.52;36.14;101220.97;5101163;28;20031;-48
2022/07/28 05:16:35;;;;;;;4.60;1.50;;;;;;;25.45;36.10;101227.91;5099225;28;20038;-44
2022/07/28 05:19:04;;;;;;;2.58;0.77;;;;;;;25.44;36.43;101227.91;5100734;28;20108;-47
2022/07/28 05:21:32;;;;;;;4.22;0.73;;;;;;;25.47;36.33;101225.31;5100532;28;20047;-44
2022/07/28 05:24:00;;;;;;;2.72;0.82;;;;;;;25.47;36.16;101231.44;5100694;28;20042;-47
2022/07/28 05:26:31;;;;;;;2.60;0.82;;;;;;;25.43;36.18;101234.88;5098621;28;20059;-48
2022/07/28 05:28:59;;;;;;;1.98;0.80;;;;;;;25.47;36.44;101226.19;5100676;28;20123;-48
2022/07/28 05:31:28;;;;;;;3.10;0.75;;;;;;;25.54;36.39;101231.53;5099522;28;20723;-44
2022/07/28 05:33:56;;;;;;;2.83;0.65;;;;;;;25.54;36.28;101221.00;5100766;28;20042;-47
2022/07/28 05:36:25;;;;;;;3.63;0.63;;;;;;;25.59;35.95;101227.19;5102053;28;20032;-52
2022/07/28 05:38:53;;;;;;;7.82;0.80;;;;;;;25.63;36.02;101222.00;5103958;28;20047;-46
2022/07/28 05:41:23;;;;;;;4.90;0.80;;;;;;;25.61;36.11;101220.19;5105430;28;20707;-51
2022/07/28 05:43:52;;;;;;;7.60;0.82;;;;;;;25.52;36.20;101223.59;5103943;28;20030;-47
2022/07/28 05:46:20;;;;;;;4.95;1.08;;;;;;;25.43;36.40;101206.00;5102368;28;20136;-53
2022/07/28 05:48:50;;;;;;;1.70;0.70;;;;;;;25.58;35.97;101220.16;5103523;28;20039;-48
2022/07/28 05:51:19;;;;;;;2.95;1.00;;;;;;;25.51;36.36;101215.72;5086089;28;20404;-52
2022/07/28 05:53:47;;;;;;;1.63;0.60;;;;;;;25.55;36.19;101223.63;5103468;28;20602;-50
2022/07/28 05:56:16;;;;;;;0.85;0.63;;;;;;;25.57;36.20;101227.16;5103219;28;20041;-50
2022/07/28 05:58:44;;;;;;;1.02;0.55;;;;;;;25.60;36.13;101227.22;5103361;28;20043;-48
2022/07/28 06:01:14;;;;;;;0.85;0.50;;;;;;;25.54;36.03;101219.25;5085862;28;20094;-50
2022/07/28 06:03:41;;;;;;;1.48;0.63;;;;;;;25.57;36.01;101221.91;5103670;28;20035;-51
2022/07/28 06:06:10;;;;;;;2.17;0.60;;;;;;;25.61;36.28;101225.44;5101836;28;20038;-54
2022/07/28 06:08:39;;;;;;;4.03;0.88;;;;;;;25.61;36.20;101218.47;5085772;28;20031;-47
2022/07/28 06:11:08;;;;;;;4.05;0.98;;;;;;;25.63;36.27;101224.63;5085703;28;20024;-46
2022/07/28 06:13:38;;;;;;;2.95;0.90;;;;;;;25.62;36.01;101216.69;5103373;28;20063;-53
2022/07/28 06:16:07;;;;;;;1.52;0.60;;;;;;;25.63;36.36;101223.72;5101828;28;20104;-53
2022/07/28 06:18:35;;;;;;;4.15;0.63;;;;;;;25.59;36.26;101216.66;5104239;28;20020;-51
2022/07/28 06:21:04;;;;;;;3.10;0.70;;;;;;;25.70;36.08;101216.78;5103905;28;20062;-52
2022/07/28 06:23:32;;;;;;;1.88;0.85;;;;;;;25.66;36.40;101218.50;5102869;28;20027;-51
2022/07/28 06:26:01;;;;;;;3.30;0.98;;;;;;;25.65;36.32;101216.75;5100638;28;21130;-51
2022/07/28 06:28:29;;;;;;;4.88;0.60;;;;;;;25.67;36.43;101219.38;5102821;28;20581;-51
2022/07/28 06:30:58;;;;;;;4.78;0.93;;;;;;;25.59;36.26;101209.69;5103521;28;20100;-47
2022/07/28 06:33:26;;;;;;;6.90;0.90;;;;;;;25.70;36.21;101215.03;5102807;28;20119;-45
2022/07/28 06:35:54;;;;;;;6.45;1.45;;;;;;;25.70;36.25;101216.78;5102395;28;20863;-47
2022/07/28 06:38:22;;;;;;;2.85;0.80;;;;;;;25.71;36.08;101218.53;5103233;28;20027;-49
2022/07/28 06:40:51;;;;;;;4.75;1.00;;;;;;;25.68;36.04;101218.50;5102807;28;20028;-47
2022/07/28 06:43:19;;;;;;;4.97;0.90;;;;;;;25.68;36.24;101218.50;5103160;28;20478;-48
2022/07/28 06:45:50;;;;;;;1.45;0.88;;;;;;;25.68;36.00;101216.78;5100215;28;20027;-49
2022/07/28 06:48:18;;;;;;;2.30;0.70;;;;;;;25.66;36.01;101212.34;5102789;28;20066;-44
2022/07/28 06:50:47;;;;;;;3.90;1.02;;;;;;;25.64;36.21;101214.97;5103004;28;20024;-48
2022/07/28 06:53:15;;;;;;;2.30;0.80;;;;;;;25.66;36.00;101214.97;5084523;28;20058;-49
2022/07/28 06:55:44;;;;;;;2.08;0.65;;;;;;;25.63;36.34;101215.84;5083226;28;20416;-46
2022/07/28 06:58:12;;;;;;;2.25;0.90;;;;;;;25.60;36.39;101211.44;5085450;28;20042;-46
2022/07/28 07:00:41;;;;;;;8.43;1.17;;;;;;;25.63;36.23;101216.75;5102225;28;20096;-48
2022/07/28 07:03:09;;;;;;;4.18;0.98;;;;;;;25.73;36.14;101211.56;5102273;28;20731;-44
2022/07/28 07:05:38;;;;;;;4.28;0.95;;;;;;;25.67;36.17;101214.13;5101050;28;20076;-51
2022/07/28 07:08:07;;;;;;;5.45;1.42;;;;;;;25.69;36.35;101212.38;5103059;28;20566;-49
2022/07/28 07:10:35;;;;;;;3.72;1.27;;;;;;;25.66;36.30;101217.59;5102681;28;20039;-49
2022/07/28 07:13:07;;;;;;;6.18;1.30;;;;;;;25.67;36.41;101216.75;5103090;28;20056;-45
2022/07/28 07:15:35;;;;;;;3.65;0.82;;;;;;;25.69;36.57;101217.63;5100583;28;20212;-47
2022/07/28 07:18:04;;;;;;;3.00;0.75;;;;;;;25.69;36.49;101215.00;5083494;28;20028;-46
2022/07/28 07:20:33;;;;;;;5.82;1.38;;;;;;;25.64;36.84;101212.34;5089460;28;20023;-46
2022/07/28 07:23:02;;;;;;;6.30;1.20;;;;;;;25.71;36.40;101213.28;5114502;28;20026;-48
2022/07/28 07:25:30;;;;;;;4.20;1.00;;;;;;;25.68;36.93;101216.78;5114772;28;20028;-48
2022/07/28 07:27:59;;;;;;;3.97;1.23;;;;;;;25.71;36.23;101216.81;5114244;28;20531;-46
2022/07/28 07:30:28;;;;;;;5.63;0.90;;;;;;;25.70;36.70;101222.03;5115120;28;20031;-44
2022/07/28 07:32:57;;;;;;;4.55;0.80;;;;;;;25.73;36.27;101228.19;5095897;28;20023;-47
2022/07/28 07:35:25;;;;;;;6.05;1.08;;;;;;;25.78;36.26;101220.38;5114039;28;20111;-47
2022/07/28 07:37:54;;;;;;;8.68;0.80;;;;;;;25.77;36.57;101221.25;5114101;28;20386;-46
2022/07/28 07:40:23;;;;;;;4.10;1.10;;;;;;;25.76;36.53;101219.47;5114482;28;20099;-48
2022/07/28 07:42:51;;;;;;;3.38;0.90;;;;;;;25.79;36.36;101216.88;5114272;28;20023;-47
2022/07/28 07:45:20;;;;;;;3.58;0.82;;;;;;;25.85;36.68;101230.06;5095672;28;20492;-45
2022/07/28 07:47:48;;;;;;;2.17;0.70;;;;;;;25.77;36.83;101226.50;5113658;28;20092;-50
2022/07/28 07:50:17;;;;;;;2.30;0.70;;;;;;;25.75;36.43;101215.09;5096059;28;20027;-47
2022/07/28 07:52:48;;;;;;;4.57;1.13;;;;;;;25.86;36.44;101220.44;5114481;28;20512;-51
2022/07/28 07:55:18;;;;;;;3.05;0.73;;;;;;;25.90;36.57;101223.09;5114141;28;20038;-48
2022/07/28 07:57:47;;;;;;;3.35;0.80;;;;;;;25.94;36.62;101210.88;5113322;28;20081;-49
2022/07/28 08:00:16;;;;;;;2.55;0.80;;;;;;;25.97;36.19;101208.25;5113805;28;20016;-53
2022/07/28 08:02:44;;;;;;;7.38;1.35;;;;;;;26.16;36.08;101206.69;5113939;28;20024;-47
2022/07/28 08:05:13;;;;;;;2.17;0.93;;;;;;;26.20;36.21;101203.22;5113853;28;20044;-45
2022/07/28 08:07:42;;;;;;;4.03;0.70;;;;;;;26.18;36.29;101202.31;5095928;28;20468;-47
2022/07/28 08:10:11;;;;;;;2.30;0.70;;;;;;;26.28;36.22;101208.53;5113826;28;20034;-46
2022/07/28 08:12:39;;;;;;;3.45;0.90;;;;;;;26.42;35.89;101207.75;5113333;28;20424;-47
2022/07/28 08:15:08;;;;;;;4.35;0.95;;;;;;;26.48;35.63;101213.91;5113686;28;20031;-50
2022/07/28 08:17:37;;;;;;;2.33;0.90;;;;;;;26.52;36.01;101222.72;5114025;28;20455;-46
2022/07/28 08:20:06;;;;;;;0.75;0.57;;;;;;;26.53;35.90;101220.09;5113671;28;20039;-46
2022/07/28 08:22:34;;;;;;;2.17;0.70;;;;;;;26.50;35.82;101224.47;5078893;28;20509;-45
2022/07/28 08:25:03;;;;;;;2.05;0.90;;;;;;;26.53;35.69;101214.84;5095826;28;20062;-47
2022/07/28 08:27:32;;;;;;;2.40;0.73;;;;;;;26.52;36.02;101220.97;5113669;28;20050;-49
2022/07/28 08:30:01;;;;;;;3.33;0.60;;;;;;;26.58;35.81;101214.84;5113508;28;20023;-43
2022/07/28 08:32:30;;;;;;;6.53;0.73;;;;;;;26.62;35.62;101207.88;5113653;28;20491;-43
2022/07/28 08:34:59;;;;;;;3.63;0.90;;;;;;;26.84;35.49;101222.06;5095111;28;20484;-54
2022/07/28 08:37:27;;;;;;;4.18;1.65;;;;;;;26.81;35.63;101216.78;5095783;28;20028;-46
2022/07/28 08:39:56;;;;;;;6.22;2.20;;;;;;;26.86;35.61;101222.06;5113542;28;20042;-47
2022/07/28 08:42:31;;;;;;;14.35;2.78;;;;;;;26.87;35.53;101222.09;5113204;28;20489;-50
2022/07/28 08:45:04;;;;;;;13.57;4.43;;;;;;;26.92;35.26;101219.47;5095384;28;20077;-45
2022/07/28 08:47:35;;;;;;;26.63;9.75;;;;;;;26.82;35.66;101210.66;5113316;28;20020;-45
2022/07/28 08:50:03;;;;;;;31.15;11.65;;;;;;;26.88;35.52;101215.94;5114027;28;20193;-44
2022/07/28 08:52:33;;;;;;;30.85;10.05;;;;;;;26.99;35.66;101223.88;5113372;28;20100;-44
2022/07/28 08:55:05;;;;;;;39.55;12.85;;;;;;;26.99;35.85;101218.59;5113303;28;20080;-44
2022/07/28 08:57:41;;;;;;;28.10;9.57;;;;;;;27.02;35.37;101220.38;5113470;28;20081;-48
2022/07/28 09:00:11;;;;;;;31.33;10.55;;;;;;;27.08;35.77;101220.41;5113670;28;20028;-46
2022/07/28 09:02:45;;;;;;;28.73;8.80;;;;;;;27.07;35.39;101213.38;5113312;28;20462;-46
2022/07/28 09:05:14;;;;;;;28.88;9.77;;;;;;;27.17;35.26;101216.91;5078772;28;20127;-47
2022/07/28 09:07:44;;;;;;;22.10;7.35;;;;;;;27.21;34.80;101210.78;5113308;28;20024;-47
2022/07/28 09:10:13;;;;;;;23.65;7.72;;;;;;;27.20;35.13;101209.03;5115572;28;20103;-44
2022/07/28 09:12:41;;;;;;;18.83;7.80;;;;;;;27.19;35.49;101212.53;5099036;28;20041;-49
2022/07/28 09:15:10;;;;;;;18.63;5.80;;;;;;;27.23;35.02;101212.53;5117341;28;20110;-46
2022/07/28 09:17:40;;;;;;;16.70;6.18;;;;;;;27.23;35.32;101211.69;5117122;28;20424;-44
2022/07/28 09:20:10;;;;;;;23.42;6.70;;;;;;;27.28;35.32;101213.44;5117072;28;20118;-47
2022/07/28 09:22:56;;;;;;;14.73;4.95;;;;;;;27.31;35.36;101209.94;5117014;28;20034;-48
2022/07/28 09:25:27;;;;;;;20.40;5.78;;;;;;;27.38;34.98;101208.22;5116793;28;20363;-50
2022/07/28 09:28:05;;;;;;;16.05;4.70;;;;;;;27.39;34.36;101208.22;5116385;28;20024;-47
2022/07/28 09:30:37;;;;;;;11.25;3.85;;;;;;;27.44;34.44;101208.22;5117109;28;20027;-45
2022/07/28 09:33:21;;;;;;;13.55;3.92;;;;;;;27.52;34.20;101214.44;5098573;28;20023;-47
2022/07/28 09:35:52;;;;;;;6.90;2.78;;;;;;;27.52;33.95;101214.44;5116864;28;20386;-48
2022/07/28 09:38:21;;;;;;;13.63;3.15;;;;;;;27.53;34.17;101210.03;5098471;28;20027;-46
2022/07/28 09:41:02;;;;;;;8.85;2.63;;;;;;;27.48;34.08;101214.41;5098524;28;20077;-48
2022/07/28 09:43:50;;;;;;;5.72;2.25;;;;;;;27.51;33.97;101217.03;5098498;28;20028;-51
2022/07/28 09:46:21;;;;;;;7.75;1.92;;;;;;;27.64;33.70;101221.44;5116201;28;20028;-46
2022/07/28 09:48:50;;;;;;;4.03;1.55;;;;;;;27.64;33.97;101217.94;5116535;28;20028;-44
2022/07/28 09:51:23;;;;;;;4.78;1.70;;;;;;;27.58;34.24;101217.06;5098684;28;20027;-48
2022/07/28 09:53:52;;;;;;;4.85;1.90;;;;;;;27.47;34.32;101202.13;5098184;28;20471;-46
2022/07/28 09:56:22;;;;;;;5.22;1.50;;;;;;;27.64;34.38;101224.09;5117047;28;20035;-46
2022/07/28 09:58:56;;;;;;;5.35;1.65;;;;;;;27.65;34.49;101228.47;5116321;28;20035;-47
2022/07/28 10:01:26;;;;;;;6.22;1.48;;;;;;;27.70;34.55;101226.75;5116538;28;20020;-47
2022/07/28 10:03:56;;;;;;;4.22;1.60;;;;;;;27.82;34.37;101220.59;5115984;28;20043;-44
2022/07/28 10:06:27;;;;;;;4.88;1.10;;;;;;;27.89;33.18;101221.50;5098157;28;20028;-48
2022/07/28 10:08:58;;;;;;;6.50;1.65;;;;;;;27.92;33.38;101225.88;5116143;28;20466;-49
2022/07/28 10:11:27;;;;;;;3.88;1.55;;;;;;;27.93;32.65;101225.91;5115616;28;20058;-46
2022/07/28 10:14:06;;;;;;;7.85;1.95;;;;;;;28.03;32.25;101224.13;5116132;28;20027;-48
2022/07/28 10:16:37;;;;;;;6.20;2.00;;;;;;;27.91;32.13;101225.00;5115944;28;20023;-48
2022/07/28 10:19:06;;;;;;;7.25;1.52;;;;;;;28.17;31.54;101229.41;5097801;28;20319;-48
2022/07/28 10:21:41;;;;;;;4.28;1.17;;;;;;;27.80;31.78;101217.09;5115072;28;20023;-46
2022/07/28 10:24:10;;;;;;;3.92;1.75;;;;;;;27.83;31.78;101222.38;5098070;28;20475;-51
2022/07/28 10:26:43;;;;;;;3.35;1.10;;;;;;;27.87;31.96;101234.69;5116049;28;20031;-48
2022/07/28 10:29:16;;;;;;;7.30;1.30;;;;;;;27.92;31.81;101236.41;5115942;28;20073;-49
2022/07/28 10:31:51;;;;;;;3.90;1.38;;;;;;;27.97;32.24;101238.19;5098060;28;20027;-48
2022/07/28 10:34:23;;;;;;;4.68;1.45;;;;;;;27.78;31.97;101229.38;5115395;28;20024;-48
2022/07/28 10:36:52;;;;;;;4.72;1.25;;;;;;;27.87;31.81;101233.78;5097321;28;20123;-45
2022/07/28 10:39:24;;;;;;;2.38;0.73;;;;;;;27.83;32.33;101224.09;5115777;28;20465;-46
2022/07/28 10:41:53;;;;;;;3.08;1.17;;;;;;;27.91;31.56;101230.28;5115371;28;20031;-54
2022/07/28 10:44:21;;;;;;;4.88;1.08;;;;;;;27.93;31.98;101231.16;5097379;28;20479;-45
2022/07/28 10:46:50;;;;;;;2.90;0.90;;;;;;;27.90;30.82;101225.88;5114453;28;20486;-54
2022/07/28 10:49:20;;;;;;;4.47;1.08;;;;;;;27.56;31.20;101233.75;5115589;28;20031;-44
2022/07/28 10:51:49;;;;;;;3.05;1.08;;;;;;;27.60;32.03;101223.22;5097309;28;20027;-49
2022/07/28 10:54:26;;;;;;;7.50;1.35;;;;;;;27.65;31.57;101222.34;5115249;28;20028;-48
2022/07/28 10:56:57;;;;;;;3.65;1.15;;;;;;;27.45;31.57;101209.97;5114879;28;20106;-48
2022/07/28 10:59:48;;;;;;;2.08;0.80;;;;;;;27.51;31.62;101225.84;5096970;28;20039;-50
2022/07/28 11:02:44;;;;;;;3.35;0.98;;;;;;;27.71;31.81;101225.88;5082806;28;20125;-51
2022/07/28 11:05:30;;;;;;;3.60;1.15;;;;;;;27.83;31.36;101218.84;5102408;28;20074;-46
2022/07/28 11:08:01;;;;;;;4.90;1.38;;;;;;;27.83;31.18;101214.47;5101739;28;20034;-52
2022/07/28 11:10:29;;;;;;;2.72;0.85;;;;;;;27.72;31.70;101214.44;5099420;28;20024;-50
2022/07/28 11:12:59;;;;;;;3.40;0.93;;;;;;;27.85;31.73;101203.91;5101445;28;20059;-47
2022/07/28 11:15:37;;;;;;;6.55;1.27;;;;;;;27.88;31.77;101217.09;5100294;28;20406;-44
2022/07/28 11:18:07;;;;;;;4.63;1.00;;;;;;;27.82;31.32;101207.44;5093461;28;20025;-48
2022/07/28 11:20:55;;;;;;;3.45;1.00;;;;;;;27.66;31.63;101213.56;5093743;28;20390;-52
2022/07/28 11:23:46;;;;;;;2.05;1.02;;;;;;;27.55;31.60;101213.53;5093926;28;20027;-47
2022/07/28 11:26:18;;;;;;;5.55;0.90;;;;;;;27.69;31.88;101218.84;5094620;28;20024;-47
2022/07/28 11:29:06;;;;;;;4.28;0.82;;;;;;;27.69;31.51;101224.13;5093899;28;20020;-46
2022/07/28 11:31:54;;;;;;;4.53;1.17;;;;;;;27.95;31.70;101218.88;5067664;28;20044;-44
2022/07/28 11:34:23;;;;;;;2.05;0.65;;;;;;;27.95;31.53;101217.97;5093740;28;20395;-49
2022/07/28 11:37:05;;;;;;;2.97;0.93;;;;;;;27.90;31.36;101223.25;5094043;28;20016;-51
2022/07/28 11:39:39;;;;;;;5.10;0.98;;;;;;;27.95;31.27;101218.88;5094222;28;20122;-45
2022/07/28 11:42:27;;;;;;;1.97;0.60;;;;;;;28.01;31.45;101216.22;5094124;28;20028;-48